Fishers Island, NY (06390)

9:44 AM EST on January 28, 2015 (GMT -0500)
Hawks Nest Point | Change Station
CLOSE
Current Station
Personal Weather Station
Location: Fishers Island, NY
Elevation: 91 ft
Nearby Weather Stations

Elev 91 ft 41.27 °N, 72.01 °W | Updated 22 seconds ago

Overcast
Overcast
19.2 °F
Feels Like 3 °F
N
20.0
Wind Variable Wind from NNW
Gusts 20.0 mph

Today
High -- | Low -- °F
--% Chance of Precip.
Yesterday
High -- | Low -- °F
Precip. -- in
7:03 AM 4:59 PM
Waxing Gibbous, 65% visible
Pressure 29.96 in
Visibility 10.0 miles
Clouds Mostly Cloudy 11000 ft
Windchill 3 °F
Dew Point 11 °F
Humidity 70%
Rainfall 0.00 in
Snow Depth Not available.
UV 1 out of 12
Pollen .10 out of 12
Air Quality Not available.
Flu Activity Not available.
METAR KGON 281356Z 34018G24KT 10SM BKN110 M10/M16 A2996 RMK AO2 SLP144 T11001161 $

More Conditions Fewer Conditions

Pressure 29.96 in
Visibility 10.0 miles
Clouds Mostly Cloudy 11000 ft
Windchill 3 °F
Dew Point 11 °F
Humidity 70%
Rainfall 0.00 in
Snow Depth Not available.
UV 1 out of 12
Pollen .10 out of 12
Air Quality Not available.
Flu Activity Not available.
METAR KGON 281356Z 34018G24KT 10SM BKN110 M10/M16 A2996 RMK AO2 SLP144 T11001161 $

More Conditions Fewer Conditions

10-Day Weather Forecast

Almanac

Astronomy

Jan. 28, 2015 Rise Set
Actual Time
Civil Twilight
Nautical Twilight
Astronomical Twilight
Moon
Length of Visible Light
Length of Day
Tomorrow will be .
, % of the Moon is Illuminated

Today's Extremes

State Highs State Lows

Community

WunderPhotos

Upload Photos

1,791,160 photos uploaded!

WunderBlogs® & News

Nearby

Air Quality

  Air Quality AQ Index Pollutant
Not available.

Snow Depth

Station Depth Elevation

Earthquake Activity

City Distance Mag. Time & Date
Minimum magnitude displayed is 2.5.

Coastal Water Temperatures

Place Temperature

Nearby Weather Stations